x

La Perouse Bank (46206) Wave Buoy

3:00 - Wed 23rd Aug 2017 All times are PDT. -7 hours from GMT.

  • Sig Wave height 4.3ft
  • Peak Period 9s
  • Wind
    2mph, 4mph gusts
  • Sea Temp 58°f
  • Luft Temp 57°f
  • Sea Pressure 1017.5mb
  • La Perouse Bank
  • La Perouse Bank

More Historic Weather Station data

Upgrade to MSW Pro to gain access to the past 30 days of data for over 8000 Wavebouys and Weather Stations around the globe.

Join

Comparision Forecast

View Surf forecast
   
Mi 08/23 3:00 4.5ft 9s 2 4 mph 1017.5mb 58f 57f
2:00 4.5ft 8s 2 2 mph 1017.6mb 58f 58f
1:00 4ft 8s 2 2 mph 1017.8mb 58f 58f
12:00 4ft 8s  -  2 mph 1017.8mb 58f 58f
Di 08/22 11:00 3.5ft 8s 4 7 mph 1017.8mb 58f 58f
10:00 3.5ft 8s 7 9 mph 1017.9mb 59f 59f
9:00 4ft 8s 7 9 mph 1018.2mb 59f 59f
8:00 3.5ft 7s 7 9 mph 1018.1mb 59f 59f
7:00 3.5ft 8s 9 9 mph 1017.8mb 59f 59f
6:00 3.5ft 8s 11 13 mph 1017.8mb 59f 59f
5:00 4ft 8s 9 11 mph 1017.9mb 59f 59f
4:00 4.5ft 8s 13 16 mph 1018.1mb 59f 59f
3:00 4ft 8s 11 13 mph 1017.9mb 59f 60f
2:00 4.5ft 8s 13 13 mph 1018mb 58f 59f
1:00 4.5ft 8s 13 16 mph 1017.7mb 58f 59f
12:00 4.5ft 8s 11 13 mph 1017.7mb 58f 59f
11:00 4.5ft 8s 7 11 mph 1017.5mb 57f 58f
10:00 4.5ft 8s 11 16 mph 1017.4mb 57f 58f
9:00 4.5ft 8s 11 13 mph 1017.3mb 57f 58f
8:00 4.5ft 8s 11 13 mph 1017.2mb 57f 58f
7:00 4.5ft 8s 13 18 mph 1016.8mb 58f 58f
6:00 4.5ft 8s 13 16 mph 1016.4mb 58f 58f
5:00 4.5ft 8s 13 16 mph 1016.1mb 58f 58f
4:00 5ft 8s 13 16 mph 1016mb 58f 58f
3:00 4.5ft 5s 16 18 mph 1016.1mb 58f 58f
2:00 4.5ft 9s 16 18 mph 1016.2mb 58f 58f
1:00 5ft 8s 18 22 mph 1016.1mb 58f 58f
12:00 4.5ft 8s 18 22 mph 1016.3mb 59f 59f
Mo 08/21 11:00 4.5ft 8s 16 22 mph 1016.8mb 59f 59f
10:00 4.5ft 8s 16 18 mph 1017.1mb 59f 59f
9:00 4.5ft 8s 16 18 mph 1017.4mb 59f 59f
8:00 4.5ft 8s 16 18 mph 1017.6mb 59f 60f
7:00 3.5ft 9s 13 16 mph 1018.1mb 60f 60f
6:00 4ft 9s 11 16 mph 1018.5mb 60f 60f
5:00 4ft 7s 13 16 mph 1019mb 60f 60f
4:00 4ft 10s 11 11 mph 1019.6mb 60f 60f
3:00 4ft 10s 9 11 mph 1020.3mb 60f 59f
2:00 4ft 10s 9 11 mph 1020.6mb 60f 58f
1:00 4.5ft 8s 9 9 mph 1021mb 59f 58f
12:00 4.5ft 8s 9 11 mph 1021.2mb 59f 58f
11:00 5ft 9s 7 9 mph 1021.3mb 59f 57f
10:00 4.5ft 10s 7 9 mph 1021.4mb 59f 57f
9:00 4.5ft 10s 7 9 mph 1021.5mb 59f 57f
8:00 4.5ft 8s 9 9 mph 1021.5mb 59f 57f
7:00 4.5ft 8s 7 9 mph 1021.2mb 58f 57f
6:00 4.5ft 9s 7 9 mph 1020.9mb 58f 57f
5:00 4ft 9s 9 11 mph 1020.8mb 58f 57f
4:00 4.5ft 9s 9 11 mph 1020.7mb 58f 58f
3:00 4.5ft 8s 9 11 mph 1020.7mb 58f 58f
2:00 4.5ft 10s 7 9 mph 1020.7mb 59f 57f
1:00 4.5ft 7s 7 9 mph 1020.7mb 59f 58f
12:00 4.5ft 8s 9 11 mph 1020.7mb 59f 58f
So 08/20 11:00 4.5ft 10s 9 11 mph 1020.8mb 59f 58f
10:00 4.5ft 10s 9 11 mph 1021mb 59f 58f
9:00 4.5ft 10s 9 11 mph 1020.9mb 59f 58f
8:00 4.5ft 10s 11 16 mph 1020.5mb 59f 59f
7:00 4ft 8s 11 13 mph 1020.9mb 59f 60f
6:00 4.5ft 10s 13 18 mph 1021.2mb 59f 60f
5:00 4ft 10s 11 13 mph 1021.2mb 59f 60f
4:00 4ft 10s 11 13 mph 1021.2mb 60f 60f
3:00 3.5ft 11s 7 9 mph 1021.6mb 59f 60f
2:00 4.5ft 10s 13 16 mph 1021.9mb 59f 60f
1:00 4.5ft 9s 11 13 mph 1021.7mb 59f 60f
12:00 4.5ft 10s 11 13 mph 1021.9mb 59f 59f
11:00 4.5ft 10s 9 11 mph 1021.8mb 59f 59f
10:00 5ft 10s 7 9 mph 1021.8mb 59f 59f
9:00 4.5ft 8s 7 9 mph 1021.9mb 58f 59f
8:00 4.5ft 9s 9 11 mph 1022mb 58f 59f
7:00 4.5ft 9s 11 13 mph 1021.8mb 58f 58f
6:00 4.5ft 10s 9 11 mph 1021.8mb 57f 58f
5:00 5ft 9s 11 13 mph 1021.9mb 57f 58f
4:00 5ft 10s 13 18 mph 1022mb 58f 58f
3:00 5ft 9s 16 18 mph 1021.9mb 57f 58f
2:00 5ft 10s 11 13 mph 1022.3mb 58f 58f
1:00 5ft 10s 18 20 mph 1022.2mb 58f 58f
12:00 5ft 8s 13 18 mph 1022.2mb 58f 58f
Sa 08/19 11:00 5.5ft 10s 18 20 mph 1022.5mb 58f 58f
10:00 5.5ft 9s 16 18 mph 1022.6mb 58f 59f
9:00 5.5ft 10s 18 22 mph 1022.6mb 58f 59f
8:00 6ft 10s 18 22 mph 1022.7mb 58f 59f
7:00 6ft 8s 18 22 mph 1022.9mb 58f 59f
6:00 6ft 9s 18 22 mph 1023.1mb 59f 59f
5:00 5.5ft 10s 18 22 mph 1023.4mb 59f 59f
4:00 5ft 9s 18 22 mph 1023.6mb 59f 59f
3:00 5.5ft 8s 16 18 mph 1024mb 59f 59f
2:00 5ft 8s 16 18 mph 1024.1mb 59f 58f
1:00 5.5ft 8s 16 18 mph 1024.1mb 58f 58f
12:00 5.5ft 8s 13 18 mph 1023.9mb 58f 58f